sensor_id;sensor_type;location;lat;lon;timestamp;pressure;altitude;pressure_sealevel;temperature;humidity
38786;BME280;24535;45.508;12.252;2022-08-19T00:01:55;100835.94;;;25.28;66.26
38786;BME280;24535;45.508;12.252;2022-08-19T00:04:26;100861.75;;;25.37;66.42
38786;BME280;24535;45.508;12.252;2022-08-19T00:07:06;100878.59;;;25.46;66.09
38786;BME280;24535;45.508;12.252;2022-08-19T00:09:32;100889.84;;;25.49;65.99
38786;BME280;24535;45.508;12.252;2022-08-19T00:11:58;100905.81;;;25.51;66.11
38786;BME280;24535;45.508;12.252;2022-08-19T00:14:25;100926.38;;;25.52;66.06
38786;BME280;24535;45.508;12.252;2022-08-19T00:16:51;100943.44;;;25.59;65.87
38786;BME280;24535;45.508;12.252;2022-08-19T00:19:19;100957.38;;;25.62;65.85
38786;BME280;24535;45.508;12.252;2022-08-19T00:21:45;100962.59;;;25.64;65.94
38786;BME280;24535;45.508;12.252;2022-08-19T00:24:13;100948.84;;;25.59;66.03
38786;BME280;24535;45.508;12.252;2022-08-19T00:26:40;100959.03;;;25.57;65.87
38786;BME280;24535;45.508;12.252;2022-08-19T00:29:07;100965.84;;;25.53;65.77
38786;BME280;24535;45.508;12.252;2022-08-19T00:31:33;100960.16;;;25.48;66.14
38786;BME280;24535;45.508;12.252;2022-08-19T00:33:59;100963.72;;;25.48;66.35
38786;BME280;24535;45.508;12.252;2022-08-19T00:36:36;100958.88;;;25.44;66.73
38786;BME280;24535;45.508;12.252;2022-08-19T00:39:03;100952.94;;;25.48;66.40
38786;BME280;24535;45.508;12.252;2022-08-19T00:41:29;100962.72;;;25.56;66.19
38786;BME280;24535;45.508;12.252;2022-08-19T00:44:20;100990.00;;;25.68;66.29
38786;BME280;24535;45.508;12.252;2022-08-19T00:46:48;100986.88;;;25.85;65.91
38786;BME280;24535;45.508;12.252;2022-08-19T00:49:23;100991.53;;;25.98;66.03
38786;BME280;24535;45.508;12.252;2022-08-19T00:51:52;100969.16;;;26.11;64.53
38786;BME280;24535;45.508;12.252;2022-08-19T00:54:19;100950.88;;;26.06;64.39
38786;BME280;24535;45.508;12.252;2022-08-19T00:56:46;100943.38;;;26.02;64.28
38786;BME280;24535;45.508;12.252;2022-08-19T00:59:13;100931.69;;;25.95;64.69
38786;BME280;24535;45.508;12.252;2022-08-19T01:01:42;100917.13;;;25.89;65.36
38786;BME280;24535;45.508;12.252;2022-08-19T01:04:08;100893.81;;;25.81;65.01
38786;BME280;24535;45.508;12.252;2022-08-19T01:06:37;100875.94;;;25.80;65.59
38786;BME280;24535;45.508;12.252;2022-08-19T01:09:04;100857.47;;;25.77;65.23
38786;BME280;24535;45.508;12.252;2022-08-19T01:11:31;100846.97;;;25.68;65.13
38786;BME280;24535;45.508;12.252;2022-08-19T01:14:00;100857.53;;;25.62;64.89
38786;BME280;24535;45.508;12.252;2022-08-19T01:16:28;100872.25;;;25.60;65.25
38786;BME280;24535;45.508;12.252;2022-08-19T01:18:54;100882.38;;;25.51;65.17
38786;BME280;24535;45.508;12.252;2022-08-19T01:21:37;100900.63;;;25.49;65.78
38786;BME280;24535;45.508;12.252;2022-08-19T01:24:05;100912.03;;;25.45;65.68
38786;BME280;24535;45.508;12.252;2022-08-19T01:26:31;100942.06;;;25.42;65.76
38786;BME280;24535;45.508;12.252;2022-08-19T01:29:03;100933.28;;;25.33;65.89
38786;BME280;24535;45.508;12.252;2022-08-19T01:31:29;100941.53;;;25.25;66.57
38786;BME280;24535;45.508;12.252;2022-08-19T01:33:57;100936.66;;;25.13;66.47
38786;BME280;24535;45.508;12.252;2022-08-19T01:36:41;100936.53;;;25.07;66.92
38786;BME280;24535;45.508;12.252;2022-08-19T01:39:12;100956.56;;;24.98;67.24
38786;BME280;24535;45.508;12.252;2022-08-19T01:41:38;100967.56;;;24.96;67.44
38786;BME280;24535;45.508;12.252;2022-08-19T01:44:05;100945.59;;;24.99;67.47
38786;BME280;24535;45.508;12.252;2022-08-19T01:46:31;100923.78;;;24.94;67.54
38786;BME280;24535;45.508;12.252;2022-08-19T01:48:57;100953.25;;;24.96;67.82
38786;BME280;24535;45.508;12.252;2022-08-19T01:51:23;100985.84;;;25.01;68.13
38786;BME280;24535;45.508;12.252;2022-08-19T01:53:49;101032.06;;;25.12;68.07
38786;BME280;24535;45.508;12.252;2022-08-19T01:56:21;101045.88;;;25.24;67.74
38786;BME280;24535;45.508;12.252;2022-08-19T01:58:55;101017.28;;;25.30;67.73
38786;BME280;24535;45.508;12.252;2022-08-19T02:01:26;100992.19;;;25.29;67.46
38786;BME280;24535;45.508;12.252;2022-08-19T02:03:51;100971.66;;;25.28;67.25
38786;BME280;24535;45.508;12.252;2022-08-19T02:06:19;100919.13;;;25.24;67.04
38786;BME280;24535;45.508;12.252;2022-08-19T02:08:44;100854.09;;;25.12;67.43
38786;BME280;24535;45.508;12.252;2022-08-19T02:11:22;100823.06;;;25.02;68.19
38786;BME280;24535;45.508;12.252;2022-08-19T02:13:48;100807.56;;;24.82;67.98
38786;BME280;24535;45.508;12.252;2022-08-19T02:16:16;100812.25;;;24.74;68.58
38786;BME280;24535;45.508;12.252;2022-08-19T02:18:42;100818.97;;;24.63;68.64
38786;BME280;24535;45.508;12.252;2022-08-19T02:21:07;100822.84;;;24.54;68.98
38786;BME280;24535;45.508;12.252;2022-08-19T02:23:33;100826.31;;;24.48;69.05
38786;BME280;24535;45.508;12.252;2022-08-19T02:25:58;100833.44;;;24.55;69.52
38786;BME280;24535;45.508;12.252;2022-08-19T02:28:24;100842.22;;;24.64;69.31
38786;BME280;24535;45.508;12.252;2022-08-19T02:30:49;100848.06;;;24.67;69.21
38786;BME280;24535;45.508;12.252;2022-08-19T02:33:15;100852.66;;;24.74;68.67
38786;BME280;24535;45.508;12.252;2022-08-19T02:35:45;100865.56;;;24.78;68.64
38786;BME280;24535;45.508;12.252;2022-08-19T02:38:11;100841.13;;;24.80;68.22
38786;BME280;24535;45.508;12.252;2022-08-19T02:41:02;100766.69;;;24.79;67.99
38786;BME280;24535;45.508;12.252;2022-08-19T02:43:30;100645.38;;;24.72;67.55
38786;BME280;24535;45.508;12.252;2022-08-19T02:45:56;100533.56;;;24.55;67.76
38786;BME280;24535;45.508;12.252;2022-08-19T02:48:23;100518.72;;;24.37;67.88
38786;BME280;24535;45.508;12.252;2022-08-19T02:50:51;100534.38;;;24.21;68.01
38786;BME280;24535;45.508;12.252;2022-08-19T02:53:22;100561.81;;;24.09;68.30
38786;BME280;24535;45.508;12.252;2022-08-19T02:55:48;100576.25;;;24.02;68.52
38786;BME280;24535;45.508;12.252;2022-08-19T02:58:15;100573.13;;;23.98;68.77
38786;BME280;24535;45.508;12.252;2022-08-19T03:00:43;100565.19;;;23.90;69.21
38786;BME280;24535;45.508;12.252;2022-08-19T03:03:12;100583.59;;;23.86;68.67
38786;BME280;24535;45.508;12.252;2022-08-19T03:05:38;100616.25;;;23.83;68.60
38786;BME280;24535;45.508;12.252;2022-08-19T03:08:03;100629.47;;;23.78;67.70
38786;BME280;24535;45.508;12.252;2022-08-19T03:13:33;100622.81;;;23.74;67.38
38786;BME280;24535;45.508;12.252;2022-08-19T03:15:59;100631.72;;;23.75;67.71
38786;BME280;24535;45.508;12.252;2022-08-19T03:18:24;100629.63;;;23.77;67.28
38786;BME280;24535;45.508;12.252;2022-08-19T03:20:51;100621.19;;;23.80;67.37
38786;BME280;24535;45.508;12.252;2022-08-19T03:23:23;100652.06;;;23.84;66.50
38786;BME280;24535;45.508;12.252;2022-08-19T03:26:08;100652.91;;;23.84;66.56
38786;BME280;24535;45.508;12.252;2022-08-19T03:28:34;100673.84;;;23.89;66.32
38786;BME280;24535;45.508;12.252;2022-08-19T03:31:02;100689.16;;;23.88;66.24
38786;BME280;24535;45.508;12.252;2022-08-19T03:33:29;100696.03;;;23.91;66.13
38786;BME280;24535;45.508;12.252;2022-08-19T03:36:12;100696.28;;;23.96;65.97
38786;BME280;24535;45.508;12.252;2022-08-19T03:38:41;100696.28;;;23.96;65.92
38786;BME280;24535;45.508;12.252;2022-08-19T03:41:12;100702.72;;;23.95;66.12
38786;BME280;24535;45.508;12.252;2022-08-19T03:43:38;100701.66;;;23.96;66.21
38786;BME280;24535;45.508;12.252;2022-08-19T03:46:12;100717.44;;;23.99;66.16
38786;BME280;24535;45.508;12.252;2022-08-19T03:48:40;100715.22;;;24.03;66.13
38786;BME280;24535;45.508;12.252;2022-08-19T03:51:06;100728.47;;;24.04;66.23
38786;BME280;24535;45.508;12.252;2022-08-19T03:53:33;100729.75;;;24.08;65.80
38786;BME280;24535;45.508;12.252;2022-08-19T03:56:02;100720.84;;;24.08;65.91
38786;BME280;24535;45.508;12.252;2022-08-19T03:58:29;100728.72;;;24.09;65.93
38786;BME280;24535;45.508;12.252;2022-08-19T04:00:57;100715.09;;;24.11;66.00
38786;BME280;24535;45.508;12.252;2022-08-19T04:03:24;100721.94;;;24.13;66.01
38786;BME280;24535;45.508;12.252;2022-08-19T04:05:51;100718.41;;;24.13;66.04
38786;BME280;24535;45.508;12.252;2022-08-19T04:08:17;100723.78;;;24.13;65.95
38786;BME280;24535;45.508;12.252;2022-08-19T04:10:46;100724.91;;;24.18;65.77
38786;BME280;24535;45.508;12.252;2022-08-19T04:13:11;100703.16;;;24.20;66.06
38786;BME280;24535;45.508;12.252;2022-08-19T04:15:42;100698.47;;;24.29;65.88
38786;BME280;24535;45.508;12.252;2022-08-19T04:18:09;100708.47;;;24.35;65.45
38786;BME280;24535;45.508;12.252;2022-08-19T04:20:46;100743.94;;;24.38;65.51
38786;BME280;24535;45.508;12.252;2022-08-19T04:23:14;100739.47;;;24.46;65.71
38786;BME280;24535;45.508;12.252;2022-08-19T04:25:42;100767.91;;;24.55;65.47
38786;BME280;24535;45.508;12.252;2022-08-19T04:28:11;100729.81;;;24.58;65.36
38786;BME280;24535;45.508;12.252;2022-08-19T04:30:46;100771.75;;;24.67;64.72
38786;BME280;24535;45.508;12.252;2022-08-19T04:33:13;100763.25;;;24.63;65.03
38786;BME280;24535;45.508;12.252;2022-08-19T04:35:43;100751.09;;;24.74;64.76
38786;BME280;24535;45.508;12.252;2022-08-19T04:38:11;100765.00;;;24.78;64.17
38786;BME280;24535;45.508;12.252;2022-08-19T04:40:43;100765.66;;;24.80;64.34
38786;BME280;24535;45.508;12.252;2022-08-19T04:43:28;100768.16;;;24.81;63.95
38786;BME280;24535;45.508;12.252;2022-08-19T04:45:56;100771.44;;;24.77;63.97
38786;BME280;24535;45.508;12.252;2022-08-19T04:48:24;100783.44;;;24.74;63.86
38786;BME280;24535;45.508;12.252;2022-08-19T04:50:55;100800.25;;;24.76;63.91
38786;BME280;24535;45.508;12.252;2022-08-19T04:53:31;100814.09;;;24.73;63.97
38786;BME280;24535;45.508;12.252;2022-08-19T04:56:04;100824.09;;;24.79;64.12
38786;BME280;24535;45.508;12.252;2022-08-19T04:58:30;100833.28;;;24.85;64.19
38786;BME280;24535;45.508;12.252;2022-08-19T05:00:55;100826.69;;;24.87;64.17
38786;BME280;24535;45.508;12.252;2022-08-19T05:03:21;100831.28;;;24.94;63.90
38786;BME280;24535;45.508;12.252;2022-08-19T05:05:48;100823.84;;;24.96;63.59
38786;BME280;24535;45.508;12.252;2022-08-19T05:08:16;100844.84;;;25.00;64.08
38786;BME280;24535;45.508;12.252;2022-08-19T05:10:47;100851.19;;;25.14;64.17
38786;BME280;24535;45.508;12.252;2022-08-19T05:13:22;100847.13;;;25.25;63.85
38786;BME280;24535;45.508;12.252;2022-08-19T05:15:56;100851.97;;;25.36;63.27
38786;BME280;24535;45.508;12.252;2022-08-19T05:18:22;100854.50;;;25.44;63.27
38786;BME280;24535;45.508;12.252;2022-08-19T05:21:14;100860.84;;;25.58;62.73
38786;BME280;24535;45.508;12.252;2022-08-19T05:23:59;100862.94;;;25.62;62.47
38786;BME280;24535;45.508;12.252;2022-08-19T05:26:25;100857.53;;;25.62;62.31
38786;BME280;24535;45.508;12.252;2022-08-19T05:28:58;100858.38;;;25.63;62.39
38786;BME280;24535;45.508;12.252;2022-08-19T05:31:26;100863.16;;;25.68;62.17
38786;BME280;24535;45.508;12.252;2022-08-19T05:33:52;100851.53;;;25.67;62.09
38786;BME280;24535;45.508;12.252;2022-08-19T05:36:17;100845.09;;;25.68;61.93
38786;BME280;24535;45.508;12.252;2022-08-19T05:38:46;100839.97;;;25.73;61.83
38786;BME280;24535;45.508;12.252;2022-08-19T05:41:13;100830.25;;;25.79;62.00
38786;BME280;24535;45.508;12.252;2022-08-19T05:43:40;100826.34;;;25.81;61.51
38786;BME280;24535;45.508;12.252;2022-08-19T05:46:07;100822.38;;;25.77;61.38
38786;BME280;24535;45.508;12.252;2022-08-19T05:51:14;100815.25;;;25.76;61.77
38786;BME280;24535;45.508;12.252;2022-08-19T05:53:41;100816.13;;;25.77;61.68
38786;BME280;24535;45.508;12.252;2022-08-19T05:56:09;100799.47;;;25.73;61.53
38786;BME280;24535;45.508;12.252;2022-08-19T05:58:36;100783.03;;;25.68;61.66
38786;BME280;24535;45.508;12.252;2022-08-19T06:01:03;100777.41;;;25.63;61.56
38786;BME280;24535;45.508;12.252;2022-08-19T06:03:34;100767.44;;;25.57;61.84
38786;BME280;24535;45.508;12.252;2022-08-19T06:06:00;100781.09;;;25.49;61.86
38786;BME280;24535;45.508;12.252;2022-08-19T06:08:28;100777.75;;;25.47;61.85
38786;BME280;24535;45.508;12.252;2022-08-19T06:13:19;100775.38;;;25.30;62.05
38786;BME280;24535;45.508;12.252;2022-08-19T06:15:45;100783.00;;;25.20;62.43
38786;BME280;24535;45.508;12.252;2022-08-19T06:18:13;100788.81;;;25.24;62.71
38786;BME280;24535;45.508;12.252;2022-08-19T06:20:39;100798.59;;;25.25;62.81
38786;BME280;24535;45.508;12.252;2022-08-19T06:23:05;100792.16;;;25.26;63.05
38786;BME280;24535;45.508;12.252;2022-08-19T06:25:30;100805.28;;;25.35;62.67
38786;BME280;24535;45.508;12.252;2022-08-19T06:27:56;100801.19;;;25.46;62.64
38786;BME280;24535;45.508;12.252;2022-08-19T06:30:22;100803.78;;;25.61;62.29
38786;BME280;24535;45.508;12.252;2022-08-19T06:32:47;100799.91;;;25.77;62.25
38786;BME280;24535;45.508;12.252;2022-08-19T06:35:12;100788.56;;;25.88;61.94
38786;BME280;24535;45.508;12.252;2022-08-19T06:37:40;100795.47;;;26.04;61.15
38786;BME280;24535;45.508;12.252;2022-08-19T06:43:29;100762.22;;;26.03;60.48
38786;BME280;24535;45.508;12.252;2022-08-19T06:45:55;100758.50;;;25.98;60.32
38786;BME280;24535;45.508;12.252;2022-08-19T06:48:20;100772.19;;;25.96;60.21
38786;BME280;24535;45.508;12.252;2022-08-19T06:50:46;100755.53;;;25.93;59.72
38786;BME280;24535;45.508;12.252;2022-08-19T06:53:14;100751.84;;;25.94;60.21
38786;BME280;24535;45.508;12.252;2022-08-19T06:55:40;100743.91;;;25.92;60.22
38786;BME280;24535;45.508;12.252;2022-08-19T06:58:06;100749.31;;;25.92;60.06
38786;BME280;24535;45.508;12.252;2022-08-19T07:00:32;100747.03;;;25.96;59.82
38786;BME280;24535;45.508;12.252;2022-08-19T07:02:57;100758.50;;;25.98;59.79
38786;BME280;24535;45.508;12.252;2022-08-19T07:05:24;100759.94;;;26.00;59.57
38786;BME280;24535;45.508;12.252;2022-08-19T07:08:18;100745.63;;;26.06;59.24
38786;BME280;24535;45.508;12.252;2022-08-19T07:10:59;100746.25;;;26.08;59.07
38786;BME280;24535;45.508;12.252;2022-08-19T07:13:26;100744.38;;;26.09;58.76
38786;BME280;24535;45.508;12.252;2022-08-19T07:15:52;100737.31;;;26.08;58.56
38786;BME280;24535;45.508;12.252;2022-08-19T07:18:18;100729.44;;;26.06;58.23
38786;BME280;24535;45.508;12.252;2022-08-19T07:20:45;100735.44;;;26.08;58.24
38786;BME280;24535;45.508;12.252;2022-08-19T07:23:11;100726.75;;;26.13;58.00
38786;BME280;24535;45.508;12.252;2022-08-19T07:25:38;100738.16;;;26.15;57.96
38786;BME280;24535;45.508;12.252;2022-08-19T07:28:03;100741.09;;;26.20;57.85
38786;BME280;24535;45.508;12.252;2022-08-19T07:30:29;100748.56;;;26.25;57.63
38786;BME280;24535;45.508;12.252;2022-08-19T07:32:55;100762.72;;;26.33;58.00
38786;BME280;24535;45.508;12.252;2022-08-19T07:35:22;100769.59;;;26.43;57.94
38786;BME280;24535;45.508;12.252;2022-08-19T07:37:49;100756.97;;;26.50;57.43
38786;BME280;24535;45.508;12.252;2022-08-19T07:40:14;100751.97;;;26.60;57.48
38786;BME280;24535;45.508;12.252;2022-08-19T07:42:41;100755.69;;;26.66;57.20
38786;BME280;24535;45.508;12.252;2022-08-19T07:45:07;100764.63;;;26.73;57.17
38786;BME280;24535;45.508;12.252;2022-08-19T07:47:33;100778.34;;;26.78;56.82
38786;BME280;24535;45.508;12.252;2022-08-19T07:49:58;100794.41;;;26.86;56.73
38786;BME280;24535;45.508;12.252;2022-08-19T07:52:24;100800.44;;;26.95;56.58
38786;BME280;24535;45.508;12.252;2022-08-19T07:54:49;100796.69;;;27.02;56.69
38786;BME280;24535;45.508;12.252;2022-08-19T07:57:16;100802.47;;;27.06;55.64
38786;BME280;24535;45.508;12.252;2022-08-19T07:59:41;100802.28;;;27.07;55.37
38786;BME280;24535;45.508;12.252;2022-08-19T08:08:04;100811.47;;;27.13;55.10
38786;BME280;24535;45.508;12.252;2022-08-19T08:10:50;100808.94;;;27.18;55.39
38786;BME280;24535;45.508;12.252;2022-08-19T08:13:15;100799.38;;;27.22;55.36
38786;BME280;24535;45.508;12.252;2022-08-19T08:15:41;100809.34;;;27.35;55.54
38786;BME280;24535;45.508;12.252;2022-08-19T08:18:15;100795.59;;;27.43;55.20
38786;BME280;24535;45.508;12.252;2022-08-19T08:20:40;100789.09;;;27.57;55.31
38786;BME280;24535;45.508;12.252;2022-08-19T08:23:08;100783.63;;;27.84;55.00
38786;BME280;24535;45.508;12.252;2022-08-19T08:25:55;100797.25;;;28.09;54.83
38786;BME280;24535;45.508;12.252;2022-08-19T08:28:22;100802.97;;;28.26;54.16
38786;BME280;24535;45.508;12.252;2022-08-19T08:30:49;100812.75;;;28.33;52.85
38786;BME280;24535;45.508;12.252;2022-08-19T08:33:20;100812.34;;;28.37;52.44
38786;BME280;24535;45.508;12.252;2022-08-19T08:35:46;100837.56;;;28.37;53.11
38786;BME280;24535;45.508;12.252;2022-08-19T08:38:13;100867.38;;;28.37;52.90
38786;BME280;24535;45.508;12.252;2022-08-19T08:40:42;100865.91;;;28.41;52.81
38786;BME280;24535;45.508;12.252;2022-08-19T08:43:32;100864.25;;;28.40;52.56
38786;BME280;24535;45.508;12.252;2022-08-19T08:46:15;100865.88;;;28.34;52.68
38786;BME280;24535;45.508;12.252;2022-08-19T08:54:33;100830.72;;;28.28;52.79
38786;BME280;24535;45.508;12.252;2022-08-19T08:56:59;100832.13;;;28.30;53.14
38786;BME280;24535;45.508;12.252;2022-08-19T08:59:37;100845.03;;;28.35;52.84
38786;BME280;24535;45.508;12.252;2022-08-19T09:02:18;100853.16;;;28.35;53.21
38786;BME280;24535;45.508;12.252;2022-08-19T09:04:44;100842.53;;;28.33;52.81
38786;BME280;24535;45.508;12.252;2022-08-19T09:07:25;100838.38;;;28.38;52.89
38786;BME280;24535;45.508;12.252;2022-08-19T09:09:54;100842.75;;;28.39;52.69
38786;BME280;24535;45.508;12.252;2022-08-19T09:12:47;100835.25;;;28.41;52.25
38786;BME280;24535;45.508;12.252;2022-08-19T09:15:22;100833.13;;;28.43;52.34
38786;BME280;24535;45.508;12.252;2022-08-19T09:17:52;100821.69;;;28.41;52.50
38786;BME280;24535;45.508;12.252;2022-08-19T09:20:22;100832.06;;;28.44;52.63
38786;BME280;24535;45.508;12.252;2022-08-19T09:22:48;100822.69;;;28.46;52.84
38786;BME280;24535;45.508;12.252;2022-08-19T09:25:20;100821.44;;;28.49;52.53
38786;BME280;24535;45.508;12.252;2022-08-19T09:27:51;100817.44;;;28.51;52.43
38786;BME280;24535;45.508;12.252;2022-08-19T09:30:32;100812.41;;;28.55;52.07
38786;BME280;24535;45.508;12.252;2022-08-19T09:32:58;100814.69;;;28.58;51.92
38786;BME280;24535;45.508;12.252;2022-08-19T09:35:27;100815.09;;;28.62;52.09
38786;BME280;24535;45.508;12.252;2022-08-19T09:37:54;100812.78;;;28.65;52.08
38786;BME280;24535;45.508;12.252;2022-08-19T09:40:20;100808.09;;;28.72;51.54
38786;BME280;24535;45.508;12.252;2022-08-19T09:42:47;100797.44;;;28.77;51.11
38786;BME280;24535;45.508;12.252;2022-08-19T09:48:56;100797.75;;;28.88;51.54
38786;BME280;24535;45.508;12.252;2022-08-19T09:51:26;100802.31;;;28.94;50.71
38786;BME280;24535;45.508;12.252;2022-08-19T09:54:00;100794.59;;;28.97;51.01
38786;BME280;24535;45.508;12.252;2022-08-19T09:56:32;100803.31;;;28.99;50.67
38786;BME280;24535;45.508;12.252;2022-08-19T09:58:59;100798.44;;;29.08;50.94
38786;BME280;24535;45.508;12.252;2022-08-19T10:01:27;100794.84;;;29.14;50.78
38786;BME280;24535;45.508;12.252;2022-08-19T10:03:56;100795.00;;;29.19;50.70
38786;BME280;24535;45.508;12.252;2022-08-19T10:06:24;100788.31;;;29.22;50.45
38786;BME280;24535;45.508;12.252;2022-08-19T10:08:50;100786.56;;;29.27;50.53
38786;BME280;24535;45.508;12.252;2022-08-19T10:11:18;100793.19;;;29.31;50.34
38786;BME280;24535;45.508;12.252;2022-08-19T10:13:53;100791.69;;;29.36;49.77
38786;BME280;24535;45.508;12.252;2022-08-19T10:16:23;100791.84;;;29.41;50.35
38786;BME280;24535;45.508;12.252;2022-08-19T10:18:49;100800.59;;;29.43;50.01
38786;BME280;24535;45.508;12.252;2022-08-19T10:21:21;100800.59;;;29.43;49.97
38786;BME280;24535;45.508;12.252;2022-08-19T10:23:50;100806.88;;;29.43;49.86
38786;BME280;24535;45.508;12.252;2022-08-19T10:26:22;100808.50;;;29.44;49.27
38786;BME280;24535;45.508;12.252;2022-08-19T10:29:06;100824.81;;;29.44;49.79
38786;BME280;24535;45.508;12.252;2022-08-19T10:31:33;100812.53;;;29.42;49.11
38786;BME280;24535;45.508;12.252;2022-08-19T10:33:59;100822.09;;;29.44;49.62
38786;BME280;24535;45.508;12.252;2022-08-19T10:36:36;100816.47;;;29.46;49.77
38786;BME280;24535;45.508;12.252;2022-08-19T10:39:09;100822.28;;;29.49;49.35
38786;BME280;24535;45.508;12.252;2022-08-19T10:41:37;100812.22;;;29.50;49.57
38786;BME280;24535;45.508;12.252;2022-08-19T10:44:07;100808.22;;;29.52;49.16
38786;BME280;24535;45.508;12.252;2022-08-19T10:46:39;100808.00;;;29.54;49.87
38786;BME280;24535;45.508;12.252;2022-08-19T10:49:07;100811.31;;;29.56;49.56
38786;BME280;24535;45.508;12.252;2022-08-19T10:51:40;100800.44;;;29.56;49.61
38786;BME280;24535;45.508;12.252;2022-08-19T10:54:24;100812.34;;;29.62;48.64
38786;BME280;24535;45.508;12.252;2022-08-19T10:57:10;100803.34;;;29.61;48.55
38786;BME280;24535;45.508;12.252;2022-08-19T10:59:36;100801.84;;;29.65;48.64
38786;BME280;24535;45.508;12.252;2022-08-19T11:02:07;100799.97;;;29.66;48.47
38786;BME280;24535;45.508;12.252;2022-08-19T11:04:40;100790.75;;;29.67;48.31
38786;BME280;24535;45.508;12.252;2022-08-19T11:07:05;100793.84;;;29.70;48.49
38786;BME280;24535;45.508;12.252;2022-08-19T11:09:37;100792.16;;;29.69;48.12
38786;BME280;24535;45.508;12.252;2022-08-19T11:12:25;100793.69;;;29.65;48.03
38786;BME280;24535;45.508;12.252;2022-08-19T11:14:50;100801.38;;;29.68;48.41
38786;BME280;24535;45.508;12.252;2022-08-19T11:17:16;100812.88;;;29.70;48.41
38786;BME280;24535;45.508;12.252;2022-08-19T11:19:42;100802.44;;;29.67;48.77
38786;BME280;24535;45.508;12.252;2022-08-19T11:25:04;100813.75;;;29.64;49.55
38786;BME280;24535;45.508;12.252;2022-08-19T11:27:30;100814.44;;;29.60;49.62
38786;BME280;24535;45.508;12.252;2022-08-19T11:32:20;100828.03;;;29.60;49.92
38786;BME280;24535;45.508;12.252;2022-08-19T11:34:46;100825.31;;;29.60;50.00
38786;BME280;24535;45.508;12.252;2022-08-19T11:37:11;100826.97;;;29.61;50.19
38786;BME280;24535;45.508;12.252;2022-08-19T11:39:37;100822.34;;;29.61;50.14
38786;BME280;24535;45.508;12.252;2022-08-19T11:44:33;100815.28;;;29.60;50.24
38786;BME280;24535;45.508;12.252;2022-08-19T11:46:59;100815.66;;;29.64;50.21
38786;BME280;24535;45.508;12.252;2022-08-19T11:49:25;100814.38;;;29.66;50.81
38786;BME280;24535;45.508;12.252;2022-08-19T11:51:51;100808.72;;;29.68;50.72
38786;BME280;24535;45.508;12.252;2022-08-19T11:57:24;100794.44;;;29.72;49.83
38786;BME280;24535;45.508;12.252;2022-08-19T11:59:51;100793.03;;;29.70;50.00
38786;BME280;24535;45.508;12.252;2022-08-19T12:02:17;100795.75;;;29.70;50.64
38786;BME280;24535;45.508;12.252;2022-08-19T12:04:44;100786.97;;;29.68;50.42
38786;BME280;24535;45.508;12.252;2022-08-19T12:07:09;100781.16;;;29.64;50.74
38786;BME280;24535;45.508;12.252;2022-08-19T12:09:35;100781.16;;;29.64;50.52
38786;BME280;24535;45.508;12.252;2022-08-19T12:12:13;100788.25;;;29.65;50.03
38786;BME280;24535;45.508;12.252;2022-08-19T12:15:06;100783.75;;;29.59;49.99
38786;BME280;24535;45.508;12.252;2022-08-19T12:17:32;100780.63;;;29.55;49.63
38786;BME280;24535;45.508;12.252;2022-08-19T12:19:59;100778.16;;;29.54;49.85
38786;BME280;24535;45.508;12.252;2022-08-19T12:22:25;100789.59;;;29.56;50.10
38786;BME280;24535;45.508;12.252;2022-08-19T12:24:50;100794.00;;;29.57;49.79
38786;BME280;24535;45.508;12.252;2022-08-19T12:27:18;100789.59;;;29.56;49.54
38786;BME280;24535;45.508;12.252;2022-08-19T12:29:43;100787.94;;;29.55;49.27
38786;BME280;24535;45.508;12.252;2022-08-19T12:32:12;100797.75;;;29.56;49.39
38786;BME280;24535;45.508;12.252;2022-08-19T12:34:38;100795.44;;;29.60;48.57
38786;BME280;24535;45.508;12.252;2022-08-19T12:37:05;100796.31;;;29.53;48.81
38786;BME280;24535;45.508;12.252;2022-08-19T12:39:38;100792.31;;;29.56;48.99
38786;BME280;24535;45.508;12.252;2022-08-19T12:42:08;100795.88;;;29.56;48.84
38786;BME280;24535;45.508;12.252;2022-08-19T12:44:34;100797.31;;;29.59;48.97
38786;BME280;24535;45.508;12.252;2022-08-19T12:47:03;100797.56;;;29.58;49.17
38786;BME280;24535;45.508;12.252;2022-08-19T12:52:29;100800.88;;;29.60;48.92
38786;BME280;24535;45.508;12.252;2022-08-19T12:54:56;100805.41;;;29.66;48.85
38786;BME280;24535;45.508;12.252;2022-08-19T12:57:28;100807.06;;;29.67;48.86
38786;BME280;24535;45.508;12.252;2022-08-19T12:59:54;100806.81;;;29.68;48.94
38786;BME280;24535;45.508;12.252;2022-08-19T13:02:26;100812.03;;;29.70;48.30
38786;BME280;24535;45.508;12.252;2022-08-19T13:04:51;100824.09;;;29.74;48.79
38786;BME280;24535;45.508;12.252;2022-08-19T13:07:17;100829.88;;;29.77;47.98
38786;BME280;24535;45.508;12.252;2022-08-19T13:09:42;100820.53;;;29.73;48.33
38786;BME280;24535;45.508;12.252;2022-08-19T13:12:08;100825.97;;;29.73;48.31
38786;BME280;24535;45.508;12.252;2022-08-19T13:14:41;100816.16;;;29.72;48.71
38786;BME280;24535;45.508;12.252;2022-08-19T13:17:13;100824.69;;;29.76;48.53
38786;BME280;24535;45.508;12.252;2022-08-19T13:19:41;100821.59;;;29.72;48.29
38786;BME280;24535;45.508;12.252;2022-08-19T13:22:07;100829.06;;;29.77;48.29
38786;BME280;24535;45.508;12.252;2022-08-19T13:29:25;100818.56;;;29.80;48.40
38786;BME280;24535;45.508;12.252;2022-08-19T13:35:06;100820.84;;;29.84;48.40
38786;BME280;24535;45.508;12.252;2022-08-19T13:37:32;100821.22;;;29.87;48.68
38786;BME280;24535;45.508;12.252;2022-08-19T13:40:17;100820.78;;;29.90;48.22